Time;durP1;ratioP1;P1;durP2;ratioP2;P2;SDS_P1;SDS_P2;PMS_P1;PMS_P2;Temp;Humidity;BMP_temperature;BMP_pressure;BME280_temperature;BME280_humidity;BME280_pressure;Samples;Min_cycle;Max_cycle;Signal;HPM_P1;HPM_P2
2022/03/15 00:01:14;;;;;;;6.73;2.80;;;;;;;6.21;nan;99256.25;5052983;28;20687;-71
2022/03/15 00:03:40;;;;;;;4.27;2.63;;;;;;;6.20;nan;99254.56;5053151;28;20233;-71
2022/03/15 00:06:07;;;;;;;5.30;2.83;;;;;;;6.20;nan;99253.78;5053336;28;20213;-71
2022/03/15 00:08:33;;;;;;;8.07;2.77;;;;;;;6.22;nan;99254.41;5057289;28;20204;-71
2022/03/15 00:11:04;;;;;;;8.70;3.00;;;;;;;6.17;nan;99249.66;5056945;28;20659;-71
2022/03/15 00:13:31;;;;;;;6.10;2.70;;;;;;;6.14;nan;99251.75;5057171;28;20196;-71
2022/03/15 00:16:00;;;;;;;4.03;2.23;;;;;;;6.10;nan;99248.63;5056875;28;20209;-71
2022/03/15 00:18:27;;;;;;;5.17;2.93;;;;;;;6.24;nan;99232.16;5057140;28;20216;-70
2022/03/15 00:20:54;;;;;;;8.73;2.83;;;;;;;6.20;nan;99237.94;5057091;28;20201;-70
2022/03/15 00:23:20;;;;;;;3.17;2.80;;;;;;;6.32;nan;99247.16;5056897;28;20608;-71
2022/03/15 00:25:46;;;;;;;4.97;3.00;;;;;;;6.31;nan;99245.53;5056709;28;20656;-71
2022/03/15 00:28:13;;;;;;;5.53;2.97;;;;;;;6.34;nan;99248.66;5057000;28;20581;-71
2022/03/15 00:30:39;;;;;;;6.33;2.70;;;;;;;6.29;nan;99248.31;5056596;28;20209;-70
2022/03/15 00:33:07;;;;;;;6.30;3.10;;;;;;;6.28;nan;99243.19;5056491;28;20205;-71
2022/03/15 00:35:33;;;;;;;7.23;3.03;;;;;;;6.21;nan;99229.00;5056429;28;20229;-71
2022/03/15 00:38:00;;;;;;;4.47;2.53;;;;;;;6.14;nan;99230.63;5056436;28;20210;-71
2022/03/15 00:40:26;;;;;;;7.50;2.60;;;;;;;6.09;nan;99235.59;5056436;28;20209;-71
2022/03/15 00:42:53;;;;;;;6.17;2.67;;;;;;;6.10;nan;99232.78;5056291;28;20668;-71
2022/03/15 00:45:22;;;;;;;7.57;3.00;;;;;;;6.23;nan;99237.59;5056613;28;20229;-71
2022/03/15 00:47:53;;;;;;;4.67;2.50;;;;;;;6.22;nan;99234.13;5056483;28;20213;-71
2022/03/15 00:50:20;;;;;;;6.73;3.03;;;;;;;6.23;nan;99230.50;5057040;28;20708;-71
2022/03/15 00:52:47;;;;;;;6.37;3.17;;;;;;;6.21;nan;99227.22;5056484;28;20212;-71
2022/03/15 00:55:13;;;;;;;4.67;2.57;;;;;;;6.24;nan;99223.41;5056078;28;20229;-71
2022/03/15 00:57:40;;;;;;;5.20;2.80;;;;;;;6.15;nan;99212.00;5056399;28;20205;-72
2022/03/15 01:00:09;;;;;;;4.73;2.83;;;;;;;6.07;nan;99213.81;5056388;28;20201;-71
2022/03/15 01:02:35;;;;;;;5.93;2.50;;;;;;;6.01;nan;99209.19;5056332;28;20205;-71
2022/03/15 01:05:03;;;;;;;5.23;2.90;;;;;;;5.96;nan;99206.19;5056152;28;20225;-71
2022/03/15 01:07:29;;;;;;;5.40;2.53;;;;;;;5.98;nan;99204.22;5056238;28;20215;-71
2022/03/15 01:09:55;;;;;;;3.60;2.50;;;;;;;6.03;nan;99209.84;5056197;28;20205;-71
2022/03/15 01:12:22;;;;;;;7.07;3.10;;;;;;;6.04;nan;99209.69;5056162;28;20569;-71
2022/03/15 01:14:48;;;;;;;5.83;3.13;;;;;;;6.08;nan;99212.81;5055780;28;20225;-71
2022/03/15 01:17:15;;;;;;;6.20;2.80;;;;;;;6.02;nan;99209.00;5055716;28;20224;-71
2022/03/15 01:19:41;;;;;;;4.57;3.13;;;;;;;5.98;nan;99207.66;5056032;28;20213;-71
2022/03/15 01:22:07;;;;;;;4.97;2.87;;;;;;;5.92;nan;99203.06;5055987;28;20201;-71
2022/03/15 01:24:34;;;;;;;5.17;2.73;;;;;;;5.98;nan;99193.66;5055835;28;20229;-71
2022/03/15 01:27:00;;;;;;;3.33;2.60;;;;;;;5.93;nan;99206.53;5055615;28;20205;-70
2022/03/15 01:29:28;;;;;;;6.77;2.90;;;;;;;5.95;nan;99199.25;5055872;28;20227;-71
2022/03/15 01:31:55;;;;;;;4.57;2.93;;;;;;;5.96;nan;99198.25;5055806;28;20209;-71
2022/03/15 01:34:22;;;;;;;4.37;2.40;;;;;;;5.89;nan;99197.28;5055677;28;20221;-71
2022/03/15 01:36:49;;;;;;;4.90;2.90;;;;;;;5.95;nan;99191.34;5055383;28;20300;-71
2022/03/15 01:39:15;;;;;;;5.07;2.90;;;;;;;6.03;nan;99176.38;5056038;28;20205;-71
2022/03/15 01:41:44;;;;;;;4.87;3.00;;;;;;;6.03;nan;99176.38;5055599;28;20212;-71
2022/03/15 01:44:18;;;;;;;4.67;2.90;;;;;;;5.97;nan;99166.44;5055942;28;20324;-71
2022/03/15 01:46:46;;;;;;;6.93;2.63;;;;;;;5.96;nan;99172.72;5055167;28;20571;-71
2022/03/15 01:49:13;;;;;;;6.07;2.60;;;;;;;5.95;nan;99172.88;5055475;28;20201;-71
2022/03/15 01:51:41;;;;;;;6.27;2.93;;;;;;;5.94;nan;99164.13;5055129;28;20213;-71
2022/03/15 01:54:12;;;;;;;4.57;2.60;;;;;;;5.99;nan;99153.06;5054880;28;20233;-71
2022/03/15 01:56:40;;;;;;;5.37;2.80;;;;;;;6.25;nan;99156.41;5055089;28;20185;-70
2022/03/15 01:59:09;;;;;;;6.33;2.80;;;;;;;6.03;nan;99154.41;5055272;28;20233;-71
2022/03/15 02:01:35;;;;;;;5.07;3.00;;;;;;;5.86;nan;99158.84;5055233;28;20300;-71
2022/03/15 02:04:02;;;;;;;5.53;2.90;;;;;;;5.92;nan;99167.94;5055041;28;20240;-71
2022/03/15 02:06:28;;;;;;;10.47;2.83;;;;;;;5.95;nan;99162.31;5055146;28;20212;-71
2022/03/15 02:08:55;;;;;;;6.73;2.70;;;;;;;5.97;nan;99168.28;5054764;28;20686;-71
2022/03/15 02:11:21;;;;;;;7.13;2.73;;;;;;;5.88;nan;99161.31;5055070;28;20213;-71
2022/03/15 02:13:49;;;;;;;4.60;3.10;;;;;;;5.91;nan;99168.91;5054631;28;20222;-71
2022/03/15 02:16:16;;;;;;;5.33;2.80;;;;;;;5.91;nan;99166.25;5054926;28;20213;-71
2022/03/15 02:18:43;;;;;;;7.37;3.03;;;;;;;5.91;nan;99163.63;5054892;28;20205;-71
2022/03/15 02:21:10;;;;;;;8.00;3.20;;;;;;;5.88;nan;99164.78;5054869;28;20217;-71
2022/03/15 02:23:37;;;;;;;4.87;2.80;;;;;;;5.95;nan;99160.50;5054358;28;20591;-71
2022/03/15 02:26:03;;;;;;;5.80;3.50;;;;;;;5.94;nan;99158.03;5054425;28;20240;-71
2022/03/15 02:28:30;;;;;;;7.33;3.60;;;;;;;5.95;nan;99173.69;5054738;28;20212;-71
2022/03/15 02:30:57;;;;;;;6.23;3.23;;;;;;;6.10;nan;99156.22;5053970;28;20209;-71
2022/03/15 02:33:23;;;;;;;5.97;2.80;;;;;;;6.11;nan;99149.94;5054251;28;20730;-71
2022/03/15 02:35:50;;;;;;;5.83;2.87;;;;;;;5.90;nan;99152.25;5054535;28;20213;-71
2022/03/15 02:38:16;;;;;;;5.00;2.70;;;;;;;5.97;nan;99144.50;5054525;28;20208;-71
2022/03/15 02:40:42;;;;;;;4.53;2.53;;;;;;;6.05;nan;99145.34;5054658;28;20553;-71
2022/03/15 02:43:09;;;;;;;7.47;3.03;;;;;;;6.03;nan;99146.50;5054145;28;20205;-71
2022/03/15 02:45:35;;;;;;;5.70;2.53;;;;;;;5.98;nan;99140.88;5053907;28;20229;-71
2022/03/15 02:48:02;;;;;;;5.43;2.80;;;;;;;6.21;nan;99147.16;5054316;28;20209;-71
2022/03/15 02:50:28;;;;;;;5.23;2.80;;;;;;;6.19;nan;99138.59;5054276;28;20205;-69
2022/03/15 02:52:55;;;;;;;4.03;2.37;;;;;;;5.97;nan;99142.69;5054255;28;20211;-71
2022/03/15 02:55:21;;;;;;;5.00;2.30;;;;;;;5.86;nan;99128.97;5053828;28;20248;-71
2022/03/15 02:57:48;;;;;;;3.77;2.30;;;;;;;5.91;nan;99134.59;5053989;28;20209;-71
2022/03/15 03:00:15;;;;;;;5.40;2.60;;;;;;;5.91;nan;99138.06;5054081;28;20201;-71
2022/03/15 03:02:42;;;;;;;6.87;2.80;;;;;;;5.95;nan;99133.28;5054047;28;20608;-71
2022/03/15 03:05:09;;;;;;;4.17;2.67;;;;;;;6.02;nan;99139.56;5053584;28;20307;-71
2022/03/15 03:07:37;;;;;;;5.57;2.63;;;;;;;6.04;nan;99134.94;5053970;28;20205;-71
2022/03/15 03:10:05;;;;;;;5.27;2.87;;;;;;;6.22;nan;99143.53;5053630;28;20561;-71
2022/03/15 03:12:31;;;;;;;6.00;2.50;;;;;;;6.19;nan;99135.94;5053891;28;20205;-69
2022/03/15 03:14:58;;;;;;;5.90;2.90;;;;;;;6.02;nan;99137.72;5053833;28;20221;-71
2022/03/15 03:17:25;;;;;;;5.27;2.80;;;;;;;5.97;nan;99140.03;5054095;28;20209;-71
2022/03/15 03:19:52;;;;;;;5.00;2.63;;;;;;;5.95;nan;99135.91;5053543;28;20342;-71
2022/03/15 03:22:19;;;;;;;6.33;2.83;;;;;;;5.92;nan;99138.91;5053733;28;20205;-71
2022/03/15 03:24:45;;;;;;;5.87;2.77;;;;;;;6.01;nan;99137.91;5053403;28;20229;-71
2022/03/15 03:27:13;;;;;;;5.17;2.40;;;;;;;5.99;nan;99132.81;5053486;28;20205;-71
2022/03/15 03:29:42;;;;;;;3.47;2.53;;;;;;;5.94;nan;99124.56;5053503;28;20201;-71
2022/03/15 03:32:09;;;;;;;5.50;2.37;;;;;;;6.04;nan;99129.66;5053678;28;20297;-71
2022/03/15 03:34:37;;;;;;;4.83;2.37;;;;;;;6.14;nan;99125.03;5053475;28;20221;-71
2022/03/15 03:37:03;;;;;;;4.37;2.53;;;;;;;6.05;nan;99126.84;5053575;28;20236;-71
2022/03/15 03:39:30;;;;;;;4.43;2.53;;;;;;;5.91;nan;99119.59;5053565;28;20209;-72
2022/03/15 03:41:59;;;;;;;5.40;2.93;;;;;;;5.82;nan;99107.38;5053469;28;20225;-71
2022/03/15 03:44:25;;;;;;;3.60;2.10;;;;;;;5.80;nan;99111.13;5052993;28;20687;-71
2022/03/15 03:46:52;;;;;;;4.30;2.60;;;;;;;5.81;nan;99099.63;5053373;28;20220;-71
2022/03/15 03:49:18;;;;;;;4.03;2.67;;;;;;;5.94;nan;99113.16;5053423;28;20209;-71
2022/03/15 03:51:44;;;;;;;4.00;2.40;;;;;;;5.96;nan;99108.53;5053105;28;20201;-71
2022/03/15 03:54:11;;;;;;;5.83;2.30;;;;;;;5.86;nan;99099.94;5052905;28;20225;-71
2022/03/15 03:56:37;;;;;;;5.13;2.50;;;;;;;5.87;nan;99099.78;5053042;28;20201;-71
2022/03/15 03:59:04;;;;;;;8.30;2.80;;;;;;;5.84;nan;99104.59;5053016;28;20216;-71
2022/03/15 04:01:30;;;;;;;6.17;2.50;;;;;;;5.82;nan;99104.75;5053326;28;20212;-71
2022/03/15 04:04:05;;;;;;;4.30;2.77;;;;;;;5.81;nan;99108.38;5052838;28;20721;-71
2022/03/15 04:06:31;;;;;;;5.93;3.03;;;;;;;5.91;nan;99109.03;5053323;28;20193;-71
2022/03/15 04:08:59;;;;;;;4.93;3.00;;;;;;;5.93;nan;99100.97;5053305;28;20207;-71
2022/03/15 04:11:26;;;;;;;5.40;2.90;;;;;;;5.91;nan;99098.47;5053081;28;20214;-71
2022/03/15 04:13:53;;;;;;;5.57;2.83;;;;;;;5.94;nan;99110.53;5052772;28;20225;-71
2022/03/15 04:16:19;;;;;;;4.20;2.70;;;;;;;5.93;nan;99111.50;5053053;28;20288;-71
2022/03/15 04:18:46;;;;;;;5.43;2.80;;;;;;;5.86;nan;99106.06;5053097;28;20201;-71
2022/03/15 04:21:13;;;;;;;6.40;2.87;;;;;;;5.80;nan;99098.81;5053022;28;20296;-71
2022/03/15 04:23:39;;;;;;;5.50;2.80;;;;;;;5.71;nan;99098.91;5053029;28;20201;-71
2022/03/15 04:26:06;;;;;;;5.77;2.70;;;;;;;5.77;nan;99095.63;5053041;28;20245;-71
2022/03/15 04:28:32;;;;;;;5.83;2.60;;;;;;;5.79;nan;99093.66;5052969;28;20205;-71
2022/03/15 04:30:58;;;;;;;4.50;2.97;;;;;;;5.72;nan;99093.47;5052615;28;20559;-71
2022/03/15 04:33:25;;;;;;;5.47;3.47;;;;;;;5.68;nan;99091.31;5052859;28;20205;-71
2022/03/15 04:35:51;;;;;;;4.70;2.80;;;;;;;5.69;nan;99099.06;5053223;28;20801;-71
2022/03/15 04:38:18;;;;;;;3.57;2.73;;;;;;;5.69;nan;99091.16;5052813;28;20292;-71
2022/03/15 04:40:44;;;;;;;4.30;2.60;;;;;;;5.64;nan;99087.34;5052696;28;20209;-71
2022/03/15 04:43:11;;;;;;;7.03;3.00;;;;;;;5.65;nan;99086.38;5052583;28;20211;-71
2022/03/15 04:45:37;;;;;;;4.27;2.63;;;;;;;6.00;nan;99088.72;5052352;28;20236;-71
2022/03/15 04:48:04;;;;;;;7.33;3.27;;;;;;;5.95;nan;99088.41;5052645;28;20216;-71
2022/03/15 04:50:31;;;;;;;7.63;3.67;;;;;;;5.86;nan;99084.13;5052827;28;20205;-71
2022/03/15 04:52:57;;;;;;;6.50;3.17;;;;;;;5.80;nan;99076.84;5053978;28;20215;-71
2022/03/15 04:55:24;;;;;;;5.60;3.20;;;;;;;5.78;nan;99084.91;5056034;28;20229;-71
2022/03/15 04:57:50;;;;;;;5.87;3.37;;;;;;;5.72;nan;99076.81;5056424;28;20238;-71
2022/03/15 05:00:17;;;;;;;6.93;3.43;;;;;;;5.72;nan;99076.81;5056311;28;20296;-71
2022/03/15 05:02:44;;;;;;;4.40;3.17;;;;;;;5.71;nan;99083.94;5055782;28;20205;-71
2022/03/15 05:05:12;;;;;;;7.83;3.17;;;;;;;5.63;nan;99073.34;5055676;28;20587;-72
2022/03/15 05:07:39;;;;;;;5.40;3.10;;;;;;;5.60;nan;99089.50;5055866;28;20259;-71
2022/03/15 05:12:50;;;;;;;6.17;3.20;;;;;;;5.61;nan;99082.44;5056068;28;20180;-71
2022/03/15 05:15:16;;;;;;;6.10;3.70;;;;;;;5.53;nan;99085.88;5055711;28;20304;-71
2022/03/15 05:17:43;;;;;;;5.93;2.90;;;;;;;5.53;nan;99085.03;5055282;28;20209;-71
2022/03/15 05:20:11;;;;;;;5.67;3.13;;;;;;;5.49;nan;99076.63;5055519;28;20682;-72
2022/03/15 05:22:37;;;;;;;6.83;3.17;;;;;;;5.50;nan;99072.16;5055384;28;20209;-71
2022/03/15 05:25:04;;;;;;;5.73;3.13;;;;;;;5.49;nan;99076.63;5054879;28;20233;-71
2022/03/15 05:27:34;;;;;;;6.17;3.47;;;;;;;5.43;nan;99076.47;5055170;28;20679;-71
2022/03/15 05:30:02;;;;;;;6.07;3.77;;;;;;;5.46;nan;99070.84;5055288;28;20541;-71
2022/03/15 05:32:28;;;;;;;7.50;3.97;;;;;;;5.45;nan;99075.31;5055466;28;20244;-71
2022/03/15 05:34:55;;;;;;;10.40;4.20;;;;;;;5.47;nan;99068.03;5055436;28;20221;-71
2022/03/15 05:37:22;;;;;;;9.20;4.43;;;;;;;5.49;nan;99067.88;5055500;28;20290;-71
2022/03/15 05:39:48;;;;;;;7.40;4.47;;;;;;;5.47;nan;99065.41;5055361;28;20212;-71
2022/03/15 05:42:18;;;;;;;7.43;4.40;;;;;;;5.53;nan;99071.84;5054944;28;20205;-71
2022/03/15 05:44:44;;;;;;;8.17;4.97;;;;;;;5.56;nan;99084.72;5055373;28;20271;-71
2022/03/15 05:47:11;;;;;;;11.63;6.33;;;;;;;5.57;nan;99073.19;5055543;28;20201;-71
2022/03/15 05:49:37;;;;;;;11.80;5.90;;;;;;;5.57;nan;99081.09;5054921;28;20571;-71
2022/03/15 05:52:04;;;;;;;9.83;6.10;;;;;;;5.56;nan;99082.91;5054691;28;20209;-71
2022/03/15 05:54:32;;;;;;;11.47;5.83;;;;;;;5.58;nan;99077.47;5054873;28;20237;-71
2022/03/15 05:56:59;;;;;;;11.97;6.53;;;;;;;5.57;nan;99073.19;5054957;28;20202;-71
2022/03/15 05:59:25;;;;;;;14.47;6.57;;;;;;;5.57;nan;99068.72;5055023;28;20202;-71
2022/03/15 06:01:51;;;;;;;10.33;6.10;;;;;;;5.59;nan;99072.03;5054813;28;20206;-71
2022/03/15 06:04:18;;;;;;;12.27;6.23;;;;;;;5.63;nan;99068.09;5053164;28;20719;-71
2022/03/15 06:06:45;;;;;;;11.43;6.03;;;;;;;5.67;nan;99068.56;5054390;28;20212;-71
2022/03/15 06:09:11;;;;;;;8.77;5.47;;;;;;;5.75;nan;99066.75;5054693;28;20292;-71
2022/03/15 06:11:39;;;;;;;9.00;5.10;;;;;;;5.70;nan;99068.25;5054279;28;20699;-71
2022/03/15 06:14:07;;;;;;;9.70;5.00;;;;;;;5.71;nan;99064.63;5054372;28;20253;-71
2022/03/15 06:16:33;;;;;;;11.00;5.07;;;;;;;5.71;nan;99069.91;5054051;28;20529;-71
2022/03/15 06:19:00;;;;;;;11.00;4.60;;;;;;;5.72;nan;99063.63;5054470;28;20224;-71
2022/03/15 06:21:26;;;;;;;9.60;4.50;;;;;;;5.72;nan;99056.56;5054441;28;20209;-71
2022/03/15 06:23:53;;;;;;;11.43;5.10;;;;;;;5.80;nan;99061.88;5054052;28;20766;-71
2022/03/15 06:26:20;;;;;;;10.70;4.63;;;;;;;5.88;nan;99066.31;5054025;28;20240;-71
2022/03/15 06:28:47;;;;;;;9.10;4.63;;;;;;;5.89;nan;99065.31;5054031;28;20282;-71
2022/03/15 06:31:14;;;;;;;8.20;4.90;;;;;;;5.99;nan;99069.44;5053630;28;20211;-71
2022/03/15 06:33:41;;;;;;;12.97;5.10;;;;;;;5.99;nan;99071.25;5053322;28;20788;-71
2022/03/15 06:36:11;;;;;;;13.00;5.20;;;;;;;6.07;nan;99071.25;5053484;28;20197;-71
2022/03/15 06:38:40;;;;;;;8.00;4.13;;;;;;;6.09;nan;99061.34;5054060;28;20546;-71
2022/03/15 06:41:07;;;;;;;10.17;4.90;;;;;;;6.11;nan;99072.59;5053893;28;20205;-71
2022/03/15 06:43:34;;;;;;;12.13;5.27;;;;;;;6.12;nan;99074.22;5053342;28;20213;-71
2022/03/15 06:46:01;;;;;;;9.67;4.90;;;;;;;6.20;nan;99071.59;5053167;28;20267;-71
2022/03/15 06:48:27;;;;;;;10.70;4.83;;;;;;;6.22;nan;99070.44;5053799;28;20296;-72
2022/03/15 06:50:54;;;;;;;15.70;5.30;;;;;;;6.25;nan;99064.78;5053831;28;20209;-71
2022/03/15 06:53:21;;;;;;;11.10;5.13;;;;;;;6.30;nan;99062.50;5053382;28;20224;-71
2022/03/15 06:55:47;;;;;;;11.77;5.30;;;;;;;6.30;nan;99067.78;5053149;28;20291;-71
2022/03/15 06:58:14;;;;;;;10.73;5.17;;;;;;;6.42;nan;99068.25;5053604;28;20268;-71
2022/03/15 07:00:41;;;;;;;9.27;5.03;;;;;;;6.38;nan;99059.00;5053131;28;20694;-71
2022/03/15 07:03:07;;;;;;;12.37;5.00;;;;;;;6.40;nan;99049.94;5053250;28;20205;-71
2022/03/15 07:05:34;;;;;;;11.23;5.40;;;;;;;6.52;nan;99053.84;5053097;28;20232;-71
2022/03/15 07:08:00;;;;;;;10.37;4.53;;;;;;;6.64;nan;99062.22;5053315;28;20204;-71
2022/03/15 07:10:26;;;;;;;8.77;4.73;;;;;;;6.56;nan;99064.91;5053157;28;20209;-71
2022/03/15 07:12:53;;;;;;;7.80;4.60;;;;;;;6.57;nan;99069.19;5053388;28;20205;-71
2022/03/15 07:15:20;;;;;;;7.40;4.10;;;;;;;6.54;nan;99069.53;5053069;28;20254;-71
2022/03/15 07:17:51;;;;;;;8.90;4.43;;;;;;;6.57;nan;99064.75;5052795;28;20240;-71
2022/03/15 07:20:17;;;;;;;8.40;4.90;;;;;;;6.55;nan;99064.06;5053235;28;20223;-71
2022/03/15 07:22:45;;;;;;;8.90;4.27;;;;;;;6.60;nan;99053.81;5052960;28;20205;-71
2022/03/15 07:25:11;;;;;;;8.87;4.73;;;;;;;6.65;nan;99058.63;5052541;28;20725;-71
2022/03/15 07:27:39;;;;;;;8.40;4.63;;;;;;;6.61;nan;99049.38;5052638;28;20209;-70
2022/03/15 07:30:06;;;;;;;11.87;4.67;;;;;;;6.59;nan;99051.34;5052778;28;20205;-70
2022/03/15 07:32:33;;;;;;;8.83;4.83;;;;;;;6.65;nan;99053.34;5052671;28;20233;-70
2022/03/15 07:34:59;;;;;;;9.40;4.33;;;;;;;6.75;nan;99048.66;5047356;28;20222;-69
2022/03/15 07:37:25;;;;;;;6.50;4.63;;;;;;;6.80;nan;99049.81;5032425;28;20205;-68
2022/03/15 07:39:52;;;;;;;9.77;4.40;;;;;;;6.86;nan;99053.56;5032373;28;20202;-69
2022/03/15 07:42:19;;;;;;;13.10;4.27;;;;;;;6.95;nan;99042.81;5032946;28;20213;-68
2022/03/15 07:44:46;;;;;;;8.37;4.30;;;;;;;7.03;nan;99039.28;5032709;28;20590;-68
2022/03/15 07:47:14;;;;;;;6.73;4.23;;;;;;;6.92;nan;99032.56;5032533;28;20565;-69
2022/03/15 07:49:41;;;;;;;9.73;4.77;;;;;;;6.96;nan;99028.59;5032785;28;20241;-69
2022/03/15 07:52:08;;;;;;;12.53;4.93;;;;;;;7.10;nan;99027.03;5032731;28;20206;-68
2022/03/15 07:54:35;;;;;;;12.30;4.43;;;;;;;7.15;nan;99022.84;5032318;28;20234;-68
2022/03/15 07:57:02;;;;;;;11.83;4.70;;;;;;;7.23;nan;99024.63;5032692;28;20198;-68
2022/03/15 07:59:29;;;;;;;11.33;4.67;;;;;;;7.28;nan;99023.13;5032780;28;20209;-68
2022/03/15 08:01:55;;;;;;;8.93;4.70;;;;;;;7.41;nan;99027.81;5032791;28;20271;-69
2022/03/15 08:04:22;;;;;;;13.30;4.97;;;;;;;7.45;nan;99021.19;5032676;28;20566;-68
2022/03/15 08:06:48;;;;;;;11.83;5.27;;;;;;;7.47;nan;99017.38;5032473;28;20229;-68
2022/03/15 08:09:15;;;;;;;13.67;4.77;;;;;;;7.55;nan;99016.50;5032623;28;20309;-68
2022/03/15 08:11:42;;;;;;;10.60;4.40;;;;;;;7.71;nan;99016.38;5032361;28;20202;-68
2022/03/15 08:14:09;;;;;;;12.07;4.83;;;;;;;7.60;nan;99014.16;5032518;28;20230;-68
2022/03/15 08:16:36;;;;;;;9.43;4.70;;;;;;;7.71;nan;99021.66;5031823;28;20213;-68
2022/03/15 08:19:02;;;;;;;8.97;4.50;;;;;;;7.75;nan;99021.16;5032372;28;20206;-68
2022/03/15 08:21:29;;;;;;;9.97;4.77;;;;;;;7.80;nan;99024.09;5032477;28;20205;-69
2022/03/15 08:23:55;;;;;;;10.33;4.77;;;;;;;7.98;nan;99021.09;5032137;28;20237;-68
2022/03/15 08:26:21;;;;;;;12.73;4.43;;;;;;;7.97;nan;99017.63;5032425;28;20222;-68
2022/03/15 08:28:49;;;;;;;8.50;4.97;;;;;;;8.40;nan;99010.78;5035082;28;20210;-68
2022/03/15 08:31:16;;;;;;;13.47;4.67;;;;;;;8.40;nan;99011.63;5036360;28;20229;-68
2022/03/15 08:33:44;;;;;;;9.13;4.70;;;;;;;8.66;nan;99003.22;5036062;28;20593;-69
2022/03/15 08:36:11;;;;;;;9.90;4.70;;;;;;;8.62;nan;99005.41;5036150;28;20202;-69
2022/03/15 08:38:37;;;;;;;10.70;4.50;;;;;;;8.67;nan;99002.19;5036314;28;20217;-68
2022/03/15 08:41:06;;;;;;;10.43;5.10;;;;;;;8.71;nan;99003.47;5035784;28;20241;-68
2022/03/15 08:43:32;;;;;;;10.30;4.80;;;;;;;8.81;nan;99009.31;5035649;28;20213;-68
2022/03/15 08:45:59;;;;;;;10.50;4.60;;;;;;;8.84;nan;98998.34;5035754;28;20688;-69
2022/03/15 08:48:25;;;;;;;10.40;4.50;;;;;;;8.98;nan;98993.03;5036047;28;20214;-69
2022/03/15 08:50:52;;;;;;;11.53;4.50;;;;;;;9.09;nan;98997.03;5036181;28;20210;-68
2022/03/15 08:53:19;;;;;;;9.40;4.40;;;;;;;9.20;nan;98994.72;5050289;28;20201;-68
2022/03/15 08:55:46;;;;;;;10.37;4.17;;;;;;;9.19;nan;98986.94;5055532;28;20223;-68
2022/03/15 08:58:12;;;;;;;8.53;4.33;;;;;;;9.38;nan;98992.47;5055718;28;20205;-68
2022/03/15 09:00:38;;;;;;;10.63;4.20;;;;;;;9.41;nan;98994.72;5055867;28;20206;-69
2022/03/15 09:03:05;;;;;;;10.27;4.37;;;;;;;9.27;nan;98995.59;5055872;28;20217;-68
2022/03/15 09:05:31;;;;;;;10.80;4.20;;;;;;;9.34;nan;98995.66;5055449;28;20232;-68
2022/03/15 09:07:58;;;;;;;5.37;2.33;;;;;;;9.70;nan;98999.91;5055898;28;20573;-68
2022/03/15 09:10:25;;;;;;;4.70;2.20;;;;;;;9.94;nan;99002.16;5055708;28;20209;-68
2022/03/15 09:12:53;;;;;;;5.50;1.73;;;;;;;9.97;nan;99008.94;5055260;28;20668;-68
2022/03/15 09:15:20;;;;;;;3.13;1.97;;;;;;;9.98;nan;98997.28;5055204;28;20734;-68
2022/03/15 09:17:47;;;;;;;5.03;1.77;;;;;;;9.98;nan;98994.63;5055627;28;20205;-68
2022/03/15 09:20:13;;;;;;;3.60;1.77;;;;;;;10.00;nan;98992.63;5055487;28;20611;-68
2022/03/15 09:22:40;;;;;;;3.37;1.77;;;;;;;10.07;nan;98985.53;5055599;28;20208;-68
2022/03/15 09:25:07;;;;;;;3.53;1.70;;;;;;;10.05;nan;98984.91;5055539;28;20228;-68
2022/03/15 09:27:33;;;;;;;4.97;1.87;;;;;;;10.14;nan;98989.06;5055250;28;20236;-69
2022/03/15 09:30:00;;;;;;;3.57;1.97;;;;;;;10.09;nan;98989.63;5054821;28;20675;-68
2022/03/15 09:32:27;;;;;;;3.10;1.90;;;;;;;10.20;nan;98982.97;5055354;28;20201;-68
2022/03/15 09:34:54;;;;;;;3.83;2.10;;;;;;;10.28;nan;98980.97;5054875;28;20229;-68
2022/03/15 09:37:21;;;;;;;2.73;1.70;;;;;;;10.20;nan;98973.19;5055143;28;20205;-68
2022/03/15 09:39:48;;;;;;;6.00;1.83;;;;;;;10.30;nan;98973.66;5055099;28;20205;-68
2022/03/15 09:42:19;;;;;;;4.07;2.03;;;;;;;10.34;nan;98964.28;5055195;28;20597;-68
2022/03/15 09:44:48;;;;;;;3.93;1.93;;;;;;;10.30;nan;98959.53;5055025;28;20240;-68
2022/03/15 09:47:17;;;;;;;5.97;2.00;;;;;;;10.20;nan;98948.44;5054913;28;20225;-68
2022/03/15 09:49:45;;;;;;;3.03;1.87;;;;;;;10.19;nan;98942.28;5055309;28;20256;-69
2022/03/15 09:52:12;;;;;;;11.17;4.30;;;;;;;10.09;nan;98941.81;5054984;28;20205;-69
2022/03/15 09:54:39;;;;;;;10.47;4.73;;;;;;;10.41;nan;98935.06;5054922;28;20648;-68
2022/03/15 09:57:07;;;;;;;13.50;4.87;;;;;;;10.52;nan;98929.19;5055025;28;20201;-68
2022/03/15 09:59:34;;;;;;;14.33;4.93;;;;;;;10.52;nan;98923.88;5055043;28;20212;-68
2022/03/15 10:02:00;;;;;;;10.07;4.20;;;;;;;10.54;nan;98916.53;5055048;28;20209;-68
2022/03/15 10:04:28;;;;;;;8.97;4.63;;;;;;;10.46;nan;98911.38;5054378;28;20726;-69
2022/03/15 10:06:56;;;;;;;13.23;4.63;;;;;;;10.01;nan;98912.72;5054461;28;20324;-69
2022/03/15 10:09:23;;;;;;;8.90;4.37;;;;;;;10.39;nan;98907.84;5054882;28;20209;-68
2022/03/15 10:11:50;;;;;;;9.57;4.30;;;;;;;10.25;nan;98892.84;5054679;28;20271;-68
2022/03/15 10:14:19;;;;;;;10.97;4.17;;;;;;;10.27;nan;98893.50;5054301;28;20225;-69
2022/03/15 10:16:46;;;;;;;7.17;3.83;;;;;;;10.19;nan;98889.13;5054543;28;20205;-69
2022/03/15 10:19:15;;;;;;;8.53;4.13;;;;;;;10.36;nan;98885.16;5054398;28;20209;-69
2022/03/15 10:21:53;;;;;;;9.20;3.93;;;;;;;9.95;nan;98872.81;5054023;28;20217;-68
2022/03/15 10:24:23;;;;;;;6.23;4.07;;;;;;;9.95;nan;98867.50;5054422;28;20232;-68
2022/03/15 10:26:57;;;;;;;9.30;3.87;;;;;;;9.98;nan;98867.97;5054304;28;20225;-69
2022/03/15 10:29:27;;;;;;;6.77;3.77;;;;;;;9.94;nan;98861.38;5054928;28;20201;-68
2022/03/15 10:31:54;;;;;;;6.87;4.20;;;;;;;9.92;nan;98863.41;5053286;28;20208;-68
2022/03/15 10:34:22;;;;;;;7.00;4.50;;;;;;;9.92;nan;98859.94;5054104;28;20719;-69
2022/03/15 10:36:51;;;;;;;5.77;4.33;;;;;;;9.85;nan;98856.41;5054073;28;20209;-68
2022/03/15 10:39:19;;;;;;;10.30;4.80;;;;;;;9.84;nan;98854.78;5053947;28;20205;-68
2022/03/15 10:41:55;;;;;;;9.03;5.37;;;;;;;9.82;nan;98840.88;5053712;28;20576;-70
2022/03/15 10:44:24;;;;;;;7.33;4.63;;;;;;;9.70;nan;98850.41;5054127;28;20229;-71
2022/03/15 10:47:04;;;;;;;8.07;4.50;;;;;;;9.67;nan;98845.47;5053928;28;20229;-71
2022/03/15 10:49:34;;;;;;;7.47;4.73;;;;;;;9.62;nan;98840.75;5054113;28;20209;-71
2022/03/15 10:52:00;;;;;;;9.30;5.20;;;;;;;9.66;nan;98825.25;5052587;28;20667;-71
2022/03/15 10:54:29;;;;;;;10.53;5.03;;;;;;;9.60;nan;98839.31;5053319;28;20241;-71
2022/03/15 10:56:58;;;;;;;11.20;5.13;;;;;;;9.44;nan;98842.22;5053821;28;20205;-71
2022/03/15 10:59:25;;;;;;;9.77;5.20;;;;;;;9.41;nan;98845.28;5053766;28;20216;-70
2022/03/15 11:01:53;;;;;;;9.57;5.23;;;;;;;9.42;nan;98839.78;5053814;28;20292;-70
2022/03/15 11:04:20;;;;;;;8.53;4.70;;;;;;;9.35;nan;98838.91;5053780;28;20221;-71
2022/03/15 11:06:48;;;;;;;10.27;5.80;;;;;;;9.66;nan;98833.22;5053650;28;20224;-70
2022/03/15 11:09:22;;;;;;;8.03;5.47;;;;;;;9.52;nan;98823.50;5053726;28;20205;-70
2022/03/15 11:12:07;;;;;;;12.63;5.37;;;;;;;9.37;nan;98820.16;5053784;28;20250;-70
2022/03/15 11:14:46;;;;;;;9.23;4.87;;;;;;;9.16;nan;98812.22;5053105;28;20727;-70
2022/03/15 11:17:14;;;;;;;9.33;5.60;;;;;;;9.17;nan;98800.59;5053226;28;20283;-70
2022/03/15 11:20:03;;;;;;;10.67;5.70;;;;;;;9.12;nan;98806.47;5053076;28;20212;-70
2022/03/15 11:22:31;;;;;;;7.77;5.73;;;;;;;9.06;nan;98795.81;5053074;28;20239;-71
2022/03/15 11:25:04;;;;;;;10.60;5.07;;;;;;;9.08;nan;98789.31;5053448;28;20221;-70
2022/03/15 11:27:40;;;;;;;8.00;5.77;;;;;;;9.16;nan;98778.56;5052935;28;20647;-71
2022/03/15 11:30:09;;;;;;;12.33;5.83;;;;;;;9.03;nan;98790.88;5041475;28;20194;-70
2022/03/15 11:32:37;;;;;;;9.73;5.63;;;;;;;9.06;nan;98779.91;5033435;28;20205;-71
2022/03/15 11:35:05;;;;;;;11.13;6.50;;;;;;;8.95;nan;98778.56;5033303;28;20225;-70
2022/03/15 11:37:32;;;;;;;10.23;6.10;;;;;;;8.94;nan;98771.63;5033063;28;20544;-70
2022/03/15 11:39:59;;;;;;;10.60;5.87;;;;;;;8.89;nan;98768.75;5032999;28;20640;-70
2022/03/15 11:42:27;;;;;;;7.97;5.83;;;;;;;8.83;nan;98763.38;5033328;28;20212;-71
2022/03/15 11:45:04;;;;;;;10.40;6.00;;;;;;;8.86;nan;98758.50;5032981;28;20230;-70
2022/03/15 11:47:42;;;;;;;13.87;6.40;;;;;;;8.75;nan;98761.69;5033305;28;20217;-68
2022/03/15 11:50:26;;;;;;;11.73;5.60;;;;;;;8.79;nan;98764.78;5032833;28;20300;-70
2022/03/15 11:53:01;;;;;;;11.23;5.30;;;;;;;8.84;nan;98755.25;5033119;28;20190;-69
2022/03/15 11:56:12;;;;;;;8.60;5.67;;;;;;;8.91;nan;98752.66;5032777;28;20272;-70
2022/03/15 11:58:39;;;;;;;7.33;5.10;;;;;;;8.89;nan;98741.41;5010056;28;20210;-69
2022/03/15 12:01:12;;;;;;;7.27;4.97;;;;;;;8.89;nan;98738.75;5033034;28;20210;-70